aviador You're here:

YCBA Decoded Metar

in
Report Time2018-07-22 16:00:00
UTC Time2018-07-22 16:31:43
Flight Rules vfr VFR
Wind050° at 06 kt
W.Decomp.*RWY 05: 6.0 kt HW -0 kt LCW
RWY 35: 3.0 kt HW 5.2 kt RCW
W.Rank050° ranks 1
Current wind is below 050° avg. (6.5)
Visibility9999 m
Phenomena:N/A
Clouds:N/A
Expected CloudBase > 2,800 ft AGL from Temp-Dew spread
CeilingNone
Temp04°C
Dew Point-3°C (61% RH)
AAT-0.5°C
QNH1019 hPa
Raw Report
METAR YCBA 221600Z AUTO 05006KT 9999 // NCD 04/M03 Q1019=

Extra information for YCBA:More info

Social comments